In Salah, Algeria
Current Conditions -  °F | °C
As of 11:00 AM on Friday 19 Dec 2014 (Local Time) from DAUI Reporting Station
Clear Clear  
Wind Chill: 61°   Ceiling: Unl
Heat Index: 61°   Visibility: 6mi
Dew Point: 37°   Wind: 20mph
Humidity: 42%   Direction: 40°NE
Pressure: 30.33"   Gusts: NA
Location:  27.19°N, 2.47°E
Report Text: DAUI 191000Z 04017KT CAVOK 16/03 Q1027
Loading
Personal Weather Stations






























Interactive Weather Map New forecast layout! Learn more

10-Day Weather Forecast

Advertisements
Track Severe Weather on mobile